Time;durP1;ratioP1;P1;durP2;ratioP2;P2;SDS_P1;SDS_P2;PMS_P1;PMS_P2;Temp;Humidity;BMP_temperature;BMP_pressure;BME280_temperature;BME280_humidity;BME280_pressure;Samples;Min_cycle;Max_cycle;Signal;HPM_P1;HPM_P2
2022/01/13 00:00:17;;;;;;;;;;;-1.30;99.90;;;;;;5028348;28;19960;-72
2022/01/13 00:02:43;;;;;;;;;;;-1.30;99.90;;;;;;5029621;28;19917;-71
2022/01/13 00:05:09;;;;;;;;;;;-1.30;99.90;;;;;;5027631;28;20722;-71
2022/01/13 00:07:36;;;;;;;;;;;-1.50;99.90;;;;;;5029228;28;20428;-73
2022/01/13 00:10:03;;;;;;;;;;;-1.60;99.90;;;;;;5028820;28;19921;-73
2022/01/13 00:12:34;;;;;;;;;;;-1.50;99.90;;;;;;5028096;28;19945;-71
2022/01/13 00:15:19;;;;;;;;;;;-1.60;99.90;;;;;;5029862;28;19990;-74
2022/01/13 00:17:58;;;;;;;;;;;-1.60;99.90;;;;;;5027216;28;19927;-72
2022/01/13 00:25:55;;;;;;;;;;;-1.60;99.90;;;;;;5024189;28;19919;-70
2022/01/13 00:28:22;;;;;;;;;;;-1.60;99.90;;;;;;5026094;28;20333;-72
2022/01/13 00:30:52;;;;;;;;;;;-1.60;99.90;;;;;;5028942;28;19917;-75
2022/01/13 00:33:23;;;;;;;;;;;-1.60;99.90;;;;;;5028333;28;20028;-72
2022/01/13 00:35:49;;;;;;;;;;;-1.60;99.90;;;;;;5028876;28;20469;-71
2022/01/13 00:38:14;;;;;;;;;;;-1.60;99.90;;;;;;5027610;28;20479;-75
2022/01/13 00:40:40;;;;;;;;;;;-1.60;99.90;;;;;;5028960;28;19949;-73
2022/01/13 00:43:05;;;;;;;;;;;-1.60;99.90;;;;;;5028220;28;20007;-73
2022/01/13 00:45:31;;;;;;;;;;;-1.70;99.90;;;;;;5026960;28;20308;-70
2022/01/13 00:47:57;;;;;;;;;;;-1.70;99.90;;;;;;5029992;28;19921;-73
2022/01/13 00:50:22;;;;;;;;;;;-1.90;99.90;;;;;;5027738;28;19938;-71
2022/01/13 00:52:48;;;;;;;;;;;-1.80;99.90;;;;;;5029035;28;19969;-71
2022/01/13 00:55:20;;;;;;;;;;;-1.80;99.90;;;;;;5030666;28;19948;-76
2022/01/13 00:57:46;;;;;;;;;;;-1.70;99.90;;;;;;5032026;28;19924;-71
2022/01/13 01:00:12;;;;;;;;;;;-1.70;99.90;;;;;;5032225;28;19917;-72
2022/01/13 01:02:37;;;;;;;;;;;-1.80;99.90;;;;;;5030535;28;19917;-72
2022/01/13 01:05:03;;;;;;;;;;;-1.80;99.90;;;;;;5032586;28;19924;-71
2022/01/13 01:07:29;;;;;;;;;;;-1.70;99.90;;;;;;5032980;28;19921;-71
2022/01/13 01:09:58;;;;;;;;;;;-1.70;99.90;;;;;;5030324;28;19913;-71
2022/01/13 01:12:23;;;;;;;;;;;-1.70;99.90;;;;;;5032066;28;19925;-72
2022/01/13 01:14:55;;;;;;;;;;;-1.70;99.90;;;;;;5028798;28;19966;-70
2022/01/13 01:17:20;;;;;;;;;;;-1.70;99.90;;;;;;5032879;28;19913;-71
2022/01/13 01:19:49;;;;;;;;;;;-1.80;99.90;;;;;;5031831;28;19917;-74
2022/01/13 01:27:22;;;;;;;;;;;-1.70;99.90;;;;;;5031490;28;19917;-71
2022/01/13 01:29:56;;;;;;;;;;;-1.80;99.90;;;;;;5031792;28;19924;-72
2022/01/13 01:32:22;;;;;;;;;;;-1.90;99.90;;;;;;5031705;28;20693;-71
2022/01/13 01:34:55;;;;;;;;;;;-1.90;99.90;;;;;;5031214;28;20272;-70
2022/01/13 01:37:23;;;;;;;;;;;-1.80;99.90;;;;;;5032627;28;19943;-76
2022/01/13 01:39:49;;;;;;;;;;;-1.70;99.90;;;;;;5031330;28;19917;-71
2022/01/13 01:42:15;;;;;;;;;;;-1.70;99.90;;;;;;5031775;28;19913;-71
2022/01/13 01:44:44;;;;;;;;;;;-1.70;99.90;;;;;;5030848;28;20003;-74
2022/01/13 01:47:13;;;;;;;;;;;-1.90;99.90;;;;;;5030936;28;19913;-75
2022/01/13 01:49:41;;;;;;;;;;;-2.10;99.90;;;;;;5031924;28;19920;-71
2022/01/13 01:52:07;;;;;;;;;;;-2.10;99.90;;;;;;5030747;28;20270;-70
2022/01/13 01:54:33;;;;;;;;;;;-2.10;99.90;;;;;;5030749;28;20365;-74
2022/01/13 01:56:58;;;;;;;;;;;-2.10;99.90;;;;;;5030263;28;19920;-71
2022/01/13 01:59:28;;;;;;;;;;;-2.00;99.90;;;;;;5028862;28;19913;-70
2022/01/13 02:01:54;;;;;;;;;;;-2.10;99.90;;;;;;5032194;28;19920;-70
2022/01/13 02:04:20;;;;;;;;;;;-2.10;99.90;;;;;;5029133;28;19917;-71
2022/01/13 02:06:46;;;;;;;;;;;-2.10;99.90;;;;;;5029170;28;19921;-72
2022/01/13 02:09:12;;;;;;;;;;;-1.90;99.90;;;;;;5031235;28;19921;-71
2022/01/13 02:11:47;;;;;;;;;;;-1.90;99.90;;;;;;5030193;28;19971;-74
2022/01/13 02:16:59;;;;;;;;;;;-1.90;99.90;;;;;;5030053;28;19917;-71
2022/01/13 02:19:25;;;;;;;;;;;-2.10;99.90;;;;;;5031012;28;19913;-75
2022/01/13 02:21:51;;;;;;;;;;;-2.00;99.90;;;;;;5029789;28;20283;-70
2022/01/13 02:24:17;;;;;;;;;;;-1.90;99.90;;;;;;5030416;28;19917;-75
2022/01/13 02:26:42;;;;;;;;;;;-1.90;99.90;;;;;;5031512;28;19919;-74
2022/01/13 02:29:08;;;;;;;;;;;-2.10;99.90;;;;;;5028374;28;19924;-70
2022/01/13 02:31:34;;;;;;;;;;;-2.00;99.90;;;;;;5030672;28;19947;-75
2022/01/13 02:33:59;;;;;;;;;;;-2.00;99.90;;;;;;5031038;28;19964;-70
2022/01/13 02:36:27;;;;;;;;;;;-2.10;99.90;;;;;;5030794;28;19917;-74
2022/01/13 02:38:55;;;;;;;;;;;-2.00;99.90;;;;;;5030406;28;20272;-76
2022/01/13 02:41:24;;;;;;;;;;;-1.90;99.90;;;;;;5030082;28;19914;-70
2022/01/13 02:43:52;;;;;;;;;;;-1.90;99.90;;;;;;5030893;28;19913;-70
2022/01/13 02:47:33;;;;;;;;;;;-1.80;99.90;;;;;;5031366;28;19923;-71
2022/01/13 02:49:13;;;;;;;;;;;-1.80;99.90;;;;;;5004676;28;19917;-70
2022/01/13 02:51:40;;;;;;;;;;;-1.80;99.90;;;;;;5031391;28;19921;-70
2022/01/13 02:54:06;;;;;;;;;;;-1.80;99.90;;;;;;5030178;28;20016;-70
2022/01/13 02:56:31;;;;;;;;;;;-1.70;99.90;;;;;;5029984;28;20007;-71
2022/01/13 02:58:57;;;;;;;;;;;-1.70;99.90;;;;;;5031605;28;19917;-75
2022/01/13 03:01:23;;;;;;;;;;;-1.70;99.90;;;;;;5029657;28;19917;-70
2022/01/13 03:03:49;;;;;;;;;;;-1.70;99.90;;;;;;5031495;28;20429;-71
2022/01/13 03:06:16;;;;;;;;;;;-1.80;99.90;;;;;;5028278;28;19921;-73
2022/01/13 03:08:45;;;;;;;;;;;-1.90;99.90;;;;;;5029002;28;19919;-72
2022/01/13 03:11:11;;;;;;;;;;;-1.90;99.90;;;;;;5030714;28;20369;-72
2022/01/13 03:13:37;;;;;;;;;;;-1.90;99.90;;;;;;5023535;28;19932;-72
2022/01/13 03:16:07;;;;;;;;;;;-2.00;99.90;;;;;;5029336;28;19971;-75
2022/01/13 03:18:32;;;;;;;;;;;-1.90;99.90;;;;;;5028334;28;19990;-70
2022/01/13 03:20:58;;;;;;;;;;;-2.20;99.90;;;;;;5030722;28;20011;-71
2022/01/13 03:23:23;;;;;;;;;;;-2.20;99.90;;;;;;5029030;28;19995;-74
2022/01/13 03:25:49;;;;;;;;;;;-2.40;99.90;;;;;;5027742;28;20054;-70
2022/01/13 03:28:28;;;;;;;;;;;-2.50;99.90;;;;;;5030886;28;20012;-71
2022/01/13 03:30:54;;;;;;;;;;;-2.60;99.90;;;;;;5029381;28;19960;-72
2022/01/13 03:33:20;;;;;;;;;;;-2.60;99.90;;;;;;5029075;28;19921;-72
2022/01/13 03:35:46;;;;;;;;;;;-2.70;99.90;;;;;;5029556;28;19917;-71
2022/01/13 03:38:12;;;;;;;;;;;-2.70;99.90;;;;;;5029542;28;19921;-70
2022/01/13 03:40:37;;;;;;;;;;;-2.60;99.90;;;;;;5030106;28;20279;-71
2022/01/13 03:43:04;;;;;;;;;;;-2.70;99.90;;;;;;5043751;28;19913;-75
2022/01/13 03:45:32;;;;;;;;;;;-2.80;99.90;;;;;;5028650;28;19913;-71
2022/01/13 03:47:58;;;;;;;;;;;-2.70;99.90;;;;;;5029628;28;20408;-76
2022/01/13 03:50:23;;;;;;;;;;;-2.60;99.90;;;;;;5029220;28;19945;-70
2022/01/13 03:53:01;;;;;;;;;;;-2.70;99.90;;;;;;5030331;28;20007;-70
2022/01/13 03:55:35;;;;;;;;;;;-2.80;99.90;;;;;;5029056;28;20302;-71
2022/01/13 03:58:30;;;;;;;;;;;-2.80;99.90;;;;;;5025175;28;19913;-76
2022/01/13 04:01:15;;;;;;;;;;;-2.70;99.90;;;;;;5023793;28;19948;-75
2022/01/13 04:03:40;;;;;;;;;;;-2.70;99.90;;;;;;5025601;28;20007;-70
2022/01/13 04:06:29;;;;;;;;;;;-2.60;99.90;;;;;;5029143;28;20008;-71
2022/01/13 04:08:54;;;;;;;;;;;-2.70;99.90;;;;;;5026300;28;19957;-75
2022/01/13 04:11:26;;;;;;;;;;;-2.60;99.90;;;;;;5028737;28;19996;-70
2022/01/13 04:13:57;;;;;;;;;;;-2.60;99.90;;;;;;5029558;28;19917;-75
2022/01/13 04:16:30;;;;;;;;;;;-2.60;99.90;;;;;;5029096;28;20359;-70
2022/01/13 04:19:00;;;;;;;;;;;-2.60;99.90;;;;;;5018328;28;20368;-70
2022/01/13 04:21:26;;;;;;;;;;;-2.50;99.90;;;;;;5030204;28;20403;-70
2022/01/13 04:23:54;;;;;;;;;;;-2.40;99.90;;;;;;5027738;28;19913;-74
2022/01/13 04:26:27;;;;;;;;;;;-2.20;99.90;;;;;;5029515;28;19917;-70
2022/01/13 04:29:00;;;;;;;;;;;-2.60;99.90;;;;;;5021364;28;19921;-70
2022/01/13 04:31:26;;;;;;;;;;;-2.60;99.90;;;;;;5027460;28;19918;-70
2022/01/13 04:33:51;;;;;;;;;;;-2.60;99.90;;;;;;5029708;28;19971;-70
2022/01/13 04:36:17;;;;;;;;;;;-2.70;99.90;;;;;;5026651;28;20414;-75
2022/01/13 04:38:43;;;;;;;;;;;-2.80;99.90;;;;;;5028715;28;20023;-70
2022/01/13 04:41:08;;;;;;;;;;;-2.90;99.90;;;;;;5028603;28;19927;-69
2022/01/13 04:43:34;;;;;;;;;;;-2.70;99.90;;;;;;5027917;28;20023;-70
2022/01/13 04:46:00;;;;;;;;;;;-2.60;99.90;;;;;;5028314;28;20318;-70
2022/01/13 04:48:25;;;;;;;;;;;-2.50;99.90;;;;;;5027861;28;20377;-70
2022/01/13 04:50:51;;;;;;;;;;;-2.50;99.90;;;;;;5029328;28;19913;-73
2022/01/13 04:53:17;;;;;;;;;;;-2.50;99.90;;;;;;5028332;28;19964;-75
2022/01/13 04:55:57;;;;;;;;;;;-2.60;99.90;;;;;;5028621;28;19920;-76
2022/01/13 04:58:23;;;;;;;;;;;-2.70;99.90;;;;;;5027776;28;19917;-71
2022/01/13 05:00:49;;;;;;;;;;;-2.70;99.90;;;;;;5027403;28;19917;-69
2022/01/13 05:03:14;;;;;;;;;;;-2.80;99.90;;;;;;5028963;28;20356;-73
2022/01/13 05:05:40;;;;;;;;;;;-2.90;99.90;;;;;;5027027;28;19917;-70
2022/01/13 05:08:05;;;;;;;;;;;-2.90;99.90;;;;;;5026604;28;19948;-70
2022/01/13 05:10:31;;;;;;;;;;;-2.90;99.90;;;;;;5038218;28;19913;-69
2022/01/13 05:12:57;;;;;;;;;;;-2.90;99.90;;;;;;5028016;28;19948;-77
2022/01/13 05:15:26;;;;;;;;;;;-2.90;99.90;;;;;;5029539;28;20284;-71
2022/01/13 05:20:23;;;;;;;;;;;-2.90;99.90;;;;;;5027890;28;19921;-70
2022/01/13 05:22:49;;;;;;;;;;;-2.80;99.90;;;;;;5027110;28;19918;-69
2022/01/13 05:25:18;;;;;;;;;;;-2.80;99.90;;;;;;5028196;28;20291;-69
2022/01/13 05:27:45;;;;;;;;;;;-2.60;99.90;;;;;;5028691;28;19936;-73
2022/01/13 05:30:11;;;;;;;;;;;-2.70;99.90;;;;;;5027256;28;19918;-76
2022/01/13 05:32:37;;;;;;;;;;;-2.70;99.90;;;;;;5028247;28;19917;-71
2022/01/13 05:35:03;;;;;;;;;;;-2.70;99.90;;;;;;5028246;28;19917;-72
2022/01/13 05:37:29;;;;;;;;;;;-2.60;99.90;;;;;;5026931;28;19998;-70
2022/01/13 05:39:55;;;;;;;;;;;-2.60;99.90;;;;;;5028985;28;19913;-70
2022/01/13 05:42:20;;;;;;;;;;;-2.60;99.90;;;;;;5027913;28;19972;-70
2022/01/13 05:44:47;;;;;;;;;;;-2.60;99.90;;;;;;5031750;28;19924;-76
2022/01/13 05:47:12;;;;;;;;;;;-2.60;99.90;;;;;;5030333;28;19956;-70
2022/01/13 05:49:40;;;;;;;;;;;-2.50;99.90;;;;;;5030212;28;19917;-70
2022/01/13 05:52:06;;;;;;;;;;;-2.80;99.90;;;;;;5032680;28;19961;-69
2022/01/13 05:54:31;;;;;;;;;;;-3.10;99.90;;;;;;5030201;28;20000;-69
2022/01/13 05:56:57;;;;;;;;;;;-3.00;99.90;;;;;;5030778;28;20016;-72
2022/01/13 05:59:23;;;;;;;;;;;-2.90;99.90;;;;;;5030859;28;20424;-69
2022/01/13 06:01:49;;;;;;;;;;;-2.90;99.90;;;;;;5030340;28;20077;-72
2022/01/13 06:04:14;;;;;;;;;;;-2.80;99.90;;;;;;5032055;28;19913;-69
2022/01/13 06:06:40;;;;;;;;;;;-2.90;99.90;;;;;;5029756;28;19916;-69
2022/01/13 06:09:05;;;;;;;;;;;-2.90;99.90;;;;;;5031295;28;20008;-72
2022/01/13 06:11:36;;;;;;;;;;;-3.00;99.90;;;;;;5030491;28;19969;-70
2022/01/13 06:14:02;;;;;;;;;;;-3.00;99.90;;;;;;5029350;28;19929;-71
2022/01/13 06:16:28;;;;;;;;;;;-3.00;99.90;;;;;;5029982;28;20422;-69
2022/01/13 06:18:53;;;;;;;;;;;-2.90;99.90;;;;;;5029703;28;19959;-70
2022/01/13 06:21:19;;;;;;;;;;;-2.90;99.90;;;;;;5031907;28;19967;-71
2022/01/13 06:23:45;;;;;;;;;;;-3.00;99.90;;;;;;5029633;28;19999;-71
2022/01/13 06:26:10;;;;;;;;;;;-2.90;99.90;;;;;;5029759;28;19913;-73
2022/01/13 06:28:36;;;;;;;;;;;-2.90;99.90;;;;;;5028561;28;19940;-70
2022/01/13 06:31:06;;;;;;;;;;;-2.90;99.90;;;;;;5028236;28;20000;-69
2022/01/13 06:33:34;;;;;;;;;;;-2.90;99.90;;;;;;5031288;28;19924;-70
2022/01/13 06:36:05;;;;;;;;;;;-2.80;99.90;;;;;;5031426;28;19952;-69
2022/01/13 06:38:34;;;;;;;;;;;-2.80;99.90;;;;;;5028692;28;19913;-69
2022/01/13 06:41:01;;;;;;;;;;;-2.80;99.90;;;;;;5031417;28;19916;-69
2022/01/13 06:43:27;;;;;;;;;;;-2.70;99.90;;;;;;5030502;28;19917;-70
2022/01/13 06:45:53;;;;;;;;;;;-2.80;99.90;;;;;;5029589;28;19924;-69
2022/01/13 06:48:19;;;;;;;;;;;-2.80;99.90;;;;;;5030437;28;20008;-69
2022/01/13 06:50:45;;;;;;;;;;;-2.80;99.90;;;;;;5030980;28;20004;-69
2022/01/13 06:53:10;;;;;;;;;;;-2.80;99.90;;;;;;5030962;28;19925;-69
2022/01/13 06:55:36;;;;;;;;;;;-2.80;99.90;;;;;;5030497;28;20372;-69
2022/01/13 06:58:03;;;;;;;;;;;-2.90;99.90;;;;;;5031421;28;20356;-70
2022/01/13 07:00:29;;;;;;;;;;;-2.80;99.90;;;;;;5028815;28;20004;-69
2022/01/13 07:02:58;;;;;;;;;;;-3.00;99.90;;;;;;5031188;28;19917;-69
2022/01/13 07:05:24;;;;;;;;;;;-3.00;99.90;;;;;;5026163;28;19967;-69
2022/01/13 07:07:50;;;;;;;;;;;-3.40;99.90;;;;;;5029771;28;19914;-69
2022/01/13 07:10:15;;;;;;;;;;;-3.50;99.90;;;;;;5029633;28;19983;-70
2022/01/13 07:12:41;;;;;;;;;;;-3.30;99.90;;;;;;5030474;28;19979;-70
2022/01/13 07:15:08;;;;;;;;;;;-3.20;99.90;;;;;;5031599;28;19924;-69
2022/01/13 07:17:34;;;;;;;;;;;-3.10;99.90;;;;;;5028832;28;19963;-69
2022/01/13 07:19:59;;;;;;;;;;;-3.20;99.90;;;;;;5029748;28;20365;-70
2022/01/13 07:22:25;;;;;;;;;;;-3.20;99.90;;;;;;5031697;28;19956;-75
2022/01/13 07:24:51;;;;;;;;;;;-3.30;99.90;;;;;;5029026;28;19921;-69
2022/01/13 07:27:17;;;;;;;;;;;-3.40;99.90;;;;;;5030251;28;20227;-71
2022/01/13 07:29:45;;;;;;;;;;;-3.40;99.90;;;;;;5030238;28;19921;-75
2022/01/13 07:32:11;;;;;;;;;;;-3.40;99.90;;;;;;5030975;28;19960;-69
2022/01/13 07:34:37;;;;;;;;;;;-3.40;99.90;;;;;;5029791;28;20333;-69
2022/01/13 07:37:02;;;;;;;;;;;-3.30;99.90;;;;;;5030024;28;19955;-74
2022/01/13 07:39:28;;;;;;;;;;;-3.40;99.90;;;;;;5032001;28;19913;-70
2022/01/13 07:41:54;;;;;;;;;;;-3.30;99.90;;;;;;5029140;28;19921;-72
2022/01/13 07:44:20;;;;;;;;;;;-3.30;99.90;;;;;;5030767;28;19917;-75
2022/01/13 07:46:45;;;;;;;;;;;-3.30;99.90;;;;;;5030442;28;19971;-69
2022/01/13 07:49:11;;;;;;;;;;;-3.20;99.90;;;;;;5029532;28;19913;-69
2022/01/13 07:51:37;;;;;;;;;;;-3.20;99.90;;;;;;5031266;28;19955;-69
2022/01/13 07:54:02;;;;;;;;;;;-3.20;99.90;;;;;;5028609;28;19952;-69
2022/01/13 07:56:28;;;;;;;;;;;-3.10;99.90;;;;;;5031453;28;19928;-70
2022/01/13 07:58:55;;;;;;;;;;;-3.00;99.90;;;;;;5029538;28;19913;-74
2022/01/13 08:01:21;;;;;;;;;;;-3.00;99.90;;;;;;5029510;28;19917;-69
2022/01/13 08:03:47;;;;;;;;;;;-3.00;99.90;;;;;;5030358;28;20329;-70
2022/01/13 08:06:13;;;;;;;;;;;-2.80;99.90;;;;;;5029608;28;20380;-70
2022/01/13 08:08:39;;;;;;;;;;;-2.70;99.90;;;;;;5030611;28;19917;-74
2022/01/13 08:11:06;;;;;;;;;;;-2.50;99.90;;;;;;5027771;28;19913;-70
2022/01/13 08:13:32;;;;;;;;;;;-2.30;99.90;;;;;;5029048;28;19987;-71
2022/01/13 08:16:01;;;;;;;;;;;-2.40;99.90;;;;;;5030201;28;19952;-73
2022/01/13 08:21:10;;;;;;;;;;;-2.40;99.90;;;;;;5030317;28;19919;-71
2022/01/13 08:23:36;;;;;;;;;;;-2.20;99.90;;;;;;5029628;28;19921;-71
2022/01/13 08:26:02;;;;;;;;;;;-2.10;99.90;;;;;;5044823;28;19917;-73
2022/01/13 08:28:28;;;;;;;;;;;-2.00;99.90;;;;;;5030902;28;20012;-71
2022/01/13 08:30:57;;;;;;;;;;;-2.00;99.90;;;;;;5029001;28;19974;-72
2022/01/13 08:33:22;;;;;;;;;;;-2.00;99.90;;;;;;5029068;28;19925;-73
2022/01/13 08:35:49;;;;;;;;;;;-1.90;99.90;;;;;;5029466;28;20004;-71
2022/01/13 08:38:19;;;;;;;;;;;-1.80;99.90;;;;;;5029015;28;20327;-71
2022/01/13 08:40:48;;;;;;;;;;;-1.70;99.90;;;;;;5030513;28;19959;-71
2022/01/13 08:43:14;;;;;;;;;;;-1.60;99.90;;;;;;5029201;28;19924;-74
2022/01/13 08:45:40;;;;;;;;;;;-1.50;99.90;;;;;;5030217;28;20016;-71
2022/01/13 08:48:06;;;;;;;;;;;-1.50;99.90;;;;;;5029236;28;19917;-72
2022/01/13 08:50:32;;;;;;;;;;;-1.70;99.90;;;;;;5029026;28;19952;-72
2022/01/13 08:52:57;;;;;;;;;;;-1.80;99.90;;;;;;5031004;28;19933;-71
2022/01/13 08:55:23;;;;;;;;;;;-1.70;99.90;;;;;;5029052;28;20379;-71
2022/01/13 08:57:48;;;;;;;;;;;-1.60;99.90;;;;;;5030218;28;19924;-72
2022/01/13 09:00:14;;;;;;;;;;;-1.40;99.90;;;;;;5029226;28;19917;-71
2022/01/13 09:02:41;;;;;;;;;;;-1.20;99.90;;;;;;5029557;28;19913;-72
2022/01/13 09:05:06;;;;;;;;;;;-1.20;99.90;;;;;;5030262;28;19944;-73
2022/01/13 09:07:32;;;;;;;;;;;-1.20;99.90;;;;;;5028745;28;19913;-72
2022/01/13 09:09:58;;;;;;;;;;;-1.10;99.90;;;;;;5030863;28;19924;-72
2022/01/13 09:12:24;;;;;;;;;;;-1.20;99.90;;;;;;5029024;28;20335;-73
2022/01/13 09:14:58;;;;;;;;;;;-1.10;99.90;;;;;;5028553;28;19924;-72
2022/01/13 09:17:24;;;;;;;;;;;-1.10;99.90;;;;;;5048071;28;19917;-71
2022/01/13 09:19:51;;;;;;;;;;;-1.20;99.90;;;;;;5032553;28;19928;-71
2022/01/13 09:22:17;;;;;;;;;;;-1.20;99.90;;;;;;5034507;28;19919;-72
2022/01/13 09:24:43;;;;;;;;;;;-1.10;99.90;;;;;;5032679;28;20280;-72
2022/01/13 09:27:09;;;;;;;;;;;-1.10;99.90;;;;;;5033484;28;19916;-72
2022/01/13 09:29:35;;;;;;;;;;;-1.10;99.90;;;;;;5031430;28;19913;-72
2022/01/13 09:32:01;;;;;;;;;;;-1.00;99.90;;;;;;5032477;28;19917;-72
2022/01/13 09:34:27;;;;;;;;;;;-1.10;99.90;;;;;;5033271;28;19917;-72
2022/01/13 09:36:52;;;;;;;;;;;-1.10;99.90;;;;;;5032165;28;19959;-72
2022/01/13 09:39:18;;;;;;;;;;;-1.10;99.90;;;;;;5033423;28;19917;-72
2022/01/13 09:41:44;;;;;;;;;;;-1.30;99.90;;;;;;5032195;28;19921;-72
2022/01/13 09:44:10;;;;;;;;;;;-1.20;99.90;;;;;;5031180;28;19921;-72
2022/01/13 09:46:37;;;;;;;;;;;-1.10;99.90;;;;;;5034092;28;20004;-72
2022/01/13 09:49:05;;;;;;;;;;;-1.20;99.90;;;;;;5032102;28;19913;-72
2022/01/13 09:51:31;;;;;;;;;;;-1.40;99.90;;;;;;5033246;28;19917;-72
2022/01/13 09:53:57;;;;;;;;;;;-1.20;99.90;;;;;;5031028;28;19921;-72
2022/01/13 09:56:22;;;;;;;;;;;-1.40;99.90;;;;;;5030532;28;20375;-72
2022/01/13 09:58:48;;;;;;;;;;;-1.40;99.90;;;;;;5033237;28;20291;-72
2022/01/13 10:01:14;;;;;;;;;;;-1.40;99.90;;;;;;5031047;28;20446;-72
2022/01/13 10:03:40;;;;;;;;;;;-1.40;99.90;;;;;;5031278;28;19952;-72
2022/01/13 10:06:16;;;;;;;;;;;-1.30;99.90;;;;;;5030494;28;19983;-72
2022/01/13 10:08:46;;;;;;;;;;;-1.10;99.90;;;;;;5031737;28;19913;-72
2022/01/13 10:11:24;;;;;;;;;;;-1.10;99.90;;;;;;5033320;28;19918;-72
2022/01/13 10:16:23;;;;;;;;;;;-1.10;99.90;;;;;;5031256;28;19975;-72
2022/01/13 10:17:08;;;;;;;;;;;-1.10;99.90;;;;;;5031620;28;19917;-71
2022/01/13 10:19:36;;;;;;;;;;;-1.10;99.90;;;;;;5031709;28;19913;-72
2022/01/13 10:22:02;;;;;;;;;;;-1.10;99.90;;;;;;5030087;28;19960;-72
2022/01/13 10:24:31;;;;;;;;;;;-1.20;99.90;;;;;;5032794;28;19917;-72
2022/01/13 10:27:01;;;;;;;;;;;-1.20;99.90;;;;;;5031760;28;19921;-72
2022/01/13 10:29:36;;;;;;;;;;;-1.10;99.90;;;;;;5031706;28;19913;-72
2022/01/13 10:32:02;;;;;;;;;;;-0.90;99.90;;;;;;5032980;28;19925;-72
2022/01/13 10:34:28;;;;;;;;;;;-1.10;99.90;;;;;;5031643;28;19921;-72
2022/01/13 10:37:02;;;;;;;;;;;-1.30;99.90;;;;;;5033046;28;19921;-72
2022/01/13 10:39:51;;;;;;;;;;;-1.30;99.90;;;;;;5030948;28;20388;-71
2022/01/13 10:45:17;;;;;;;;;;;-1.50;99.90;;;;;;5032888;28;20357;-72
2022/01/13 10:47:49;;;;;;;;;;;-1.30;99.90;;;;;;5031586;28;19959;-72
2022/01/13 10:50:15;;;;;;;;;;;-1.20;99.90;;;;;;5030842;28;19913;-72
2022/01/13 10:52:41;;;;;;;;;;;-1.20;99.90;;;;;;5032588;28;19924;-71
2022/01/13 10:55:14;;;;;;;;;;;-1.10;99.90;;;;;;5030820;28;19919;-70
2022/01/13 10:57:44;;;;;;;;;;;-1.10;99.90;;;;;;5031780;28;19940;-70
2022/01/13 11:00:23;;;;;;;;;;;-1.20;99.90;;;;;;5031272;28;19913;-74
2022/01/13 11:03:04;;;;;;;;;;;-1.30;99.90;;;;;;5016292;28;20039;-74
2022/01/13 11:05:31;;;;;;;;;;;-1.30;99.90;;;;;;5030753;28;19917;-73
2022/01/13 11:07:57;;;;;;;;;;;-1.00;99.90;;;;;;5029597;28;19949;-72
2022/01/13 11:10:24;;;;;;;;;;;-0.90;99.90;;;;;;5030902;28;19963;-75
2022/01/13 11:12:56;;;;;;;;;;;-0.90;99.90;;;;;;5031564;28;19921;-75
2022/01/13 11:15:24;;;;;;;;;;;-0.90;99.90;;;;;;5030279;28;19913;-75
2022/01/13 11:17:50;;;;;;;;;;;-0.90;99.90;;;;;;5031303;28;20254;-73
2022/01/13 11:20:17;;;;;;;;;;;-0.70;99.90;;;;;;5030570;28;19920;-75
2022/01/13 11:22:44;;;;;;;;;;;-0.60;99.90;;;;;;5030741;28;19941;-74
2022/01/13 11:25:11;;;;;;;;;;;-0.60;99.90;;;;;;5031278;28;19921;-73
2022/01/13 11:27:37;;;;;;;;;;;-0.10;99.90;;;;;;5028884;28;20007;-75
2022/01/13 11:30:05;;;;;;;;;;;0.10;99.90;;;;;;5031850;28;19939;-74
2022/01/13 11:32:31;;;;;;;;;;;0.30;99.90;;;;;;5028799;28;19924;-74
2022/01/13 11:34:58;;;;;;;;;;;0.60;99.90;;;;;;5031389;28;19917;-73
2022/01/13 11:37:26;;;;;;;;;;;0.50;99.90;;;;;;5045787;28;20120;-74
2022/01/13 11:39:52;;;;;;;;;;;0.20;99.90;;;;;;5028899;28;20414;-74
2022/01/13 11:42:18;;;;;;;;;;;-0.50;99.90;;;;;;5031688;28;19984;-73
2022/01/13 11:44:44;;;;;;;;;;;-0.20;99.90;;;;;;5029544;28;19917;-73
2022/01/13 11:47:22;;;;;;;;;;;-0.20;99.90;;;;;;5030940;28;20411;-73
2022/01/13 11:52:42;;;;;;;;;;;-0.10;99.90;;;;;;5029957;28;19964;-73
2022/01/13 11:55:19;;;;;;;;;;;-0.40;99.90;;;;;;5030993;28;19955;-73
2022/01/13 11:57:45;;;;;;;;;;;-0.40;99.90;;;;;;5030535;28;19917;-75
2022/01/13 12:00:17;;;;;;;;;;;0.10;99.90;;;;;;5029888;28;19931;-76
2022/01/13 12:02:43;;;;;;;;;;;0.40;99.90;;;;;;5031165;28;19920;-73
2022/01/13 12:05:14;;;;;;;;;;;0.40;99.90;;;;;;5029829;28;19917;-75
2022/01/13 12:07:44;;;;;;;;;;;-0.10;99.90;;;;;;5030817;28;20028;-73
2022/01/13 12:10:24;;;;;;;;;;;-0.20;99.90;;;;;;5029057;28;20001;-75
2022/01/13 12:12:50;;;;;;;;;;;-0.40;99.90;;;;;;5028735;28;19925;-75
2022/01/13 12:15:16;;;;;;;;;;;-0.80;99.90;;;;;;5029672;28;19963;-74
2022/01/13 12:17:56;;;;;;;;;;;-0.60;99.90;;;;;;5029509;28;19949;-74
2022/01/13 12:20:39;;;;;;;;;;;-0.30;99.90;;;;;;5029989;28;20000;-72
2022/01/13 12:23:16;;;;;;;;;;;-0.20;99.90;;;;;;5029322;28;19917;-74
2022/01/13 12:25:43;;;;;;;;;;;-0.20;99.90;;;;;;5029223;28;19944;-75
2022/01/13 12:28:18;;;;;;;;;;;-0.20;99.90;;;;;;5029331;28;19921;-73
2022/01/13 12:30:44;;;;;;;;;;;-0.30;99.90;;;;;;5030079;28;20431;-75
2022/01/13 12:33:10;;;;;;;;;;;-0.30;99.90;;;;;;5029200;28;19960;-75
2022/01/13 12:35:41;;;;;;;;;;;-0.50;99.90;;;;;;5029762;28;20014;-75
2022/01/13 12:38:09;;;;;;;;;;;-0.30;99.90;;;;;;5029421;28;19917;-74
2022/01/13 12:40:39;;;;;;;;;;;-0.10;99.90;;;;;;5028815;28;19920;-73
2022/01/13 12:46:09;;;;;;;;;;;-0.30;99.90;;;;;;5028998;28;19919;-71
2022/01/13 12:48:36;;;;;;;;;;;0.00;99.90;;;;;;5029637;28;19917;-74
2022/01/13 12:51:03;;;;;;;;;;;-0.10;99.90;;;;;;5031425;28;20399;-73
2022/01/13 12:53:30;;;;;;;;;;;-0.20;99.90;;;;;;5033298;28;19921;-73
2022/01/13 12:56:04;;;;;;;;;;;-0.10;99.90;;;;;;5035047;28;19920;-75
2022/01/13 12:58:31;;;;;;;;;;;0.00;99.90;;;;;;5032784;28;19913;-72
2022/01/13 13:01:03;;;;;;;;;;;-0.10;99.90;;;;;;5034650;28;20019;-73
2022/01/13 13:03:28;;;;;;;;;;;-0.20;99.90;;;;;;5033844;28;20023;-73
2022/01/13 13:05:56;;;;;;;;;;;-0.20;99.90;;;;;;5031914;28;20380;-72
2022/01/13 13:08:23;;;;;;;;;;;-0.10;99.90;;;;;;5034263;28;19917;-75
2022/01/13 13:10:50;;;;;;;;;;;0.00;99.90;;;;;;5032857;28;20268;-75
2022/01/13 13:13:17;;;;;;;;;;;0.00;99.90;;;;;;5033547;28;19925;-73
2022/01/13 13:15:43;;;;;;;;;;;;;;;;;;5031731;28;19920;-72
2022/01/13 13:18:09;;;;;;;;;;;-0.10;99.90;;;;;;5033000;28;19917;-74
2022/01/13 13:20:36;;;;;;;;;;;0.10;99.90;;;;;;5034237;28;19967;-73
2022/01/13 13:23:04;;;;;;;;;;;0.10;99.90;;;;;;5032803;28;19914;-72
2022/01/13 13:25:34;;;;;;;;;;;0.10;99.90;;;;;;5033583;28;19948;-73
2022/01/13 13:28:20;;;;;;;;;;;-0.10;99.90;;;;;;5033050;28;19913;-73
2022/01/13 13:30:46;;;;;;;;;;;0.00;99.90;;;;;;5032119;28;19944;-75
2022/01/13 13:33:12;;;;;;;;;;;0.00;99.90;;;;;;5034171;28;20011;-73
2022/01/13 13:35:38;;;;;;;;;;;0.00;99.90;;;;;;5016152;28;20016;-74
2022/01/13 13:38:03;;;;;;;;;;;-0.10;99.90;;;;;;5033722;28;19917;-74
2022/01/13 13:40:29;;;;;;;;;;;0.10;99.90;;;;;;5032592;28;19959;-73
2022/01/13 13:43:02;;;;;;;;;;;0.10;99.90;;;;;;5031467;28;19995;-73
2022/01/13 13:45:28;;;;;;;;;;;0.20;99.90;;;;;;5034227;28;19921;-74
2022/01/13 13:47:54;;;;;;;;;;;0.00;99.90;;;;;;5032331;28;19991;-73
2022/01/13 13:50:20;;;;;;;;;;;0.00;99.90;;;;;;5032119;28;20537;-72
2022/01/13 13:52:46;;;;;;;;;;;-0.10;99.90;;;;;;5031163;28;19917;-74
2022/01/13 13:55:12;;;;;;;;;;;-0.10;99.90;;;;;;5047582;28;20343;-73
2022/01/13 13:57:39;;;;;;;;;;;-0.10;99.90;;;;;;5033215;28;19962;-74
2022/01/13 14:00:08;;;;;;;;;;;0.00;99.90;;;;;;5030967;28;20077;-73
2022/01/13 14:02:38;;;;;;;;;;;0.10;99.90;;;;;;5032458;28;19924;-74
2022/01/13 14:05:08;;;;;;;;;;;0.20;99.90;;;;;;5032459;28;19917;-74
2022/01/13 14:07:35;;;;;;;;;;;0.30;99.90;;;;;;5031199;28;20280;-72
2022/01/13 14:10:01;;;;;;;;;;;0.00;99.90;;;;;;5033310;28;20002;-74
2022/01/13 14:12:29;;;;;;;;;;;-0.10;99.90;;;;;;5032220;28;20408;-73
2022/01/13 14:14:55;;;;;;;;;;;-0.10;99.90;;;;;;5033534;28;19986;-73
2022/01/13 14:17:34;;;;;;;;;;;-0.10;99.90;;;;;;5030842;28;20447;-73
2022/01/13 14:20:02;;;;;;;;;;;-0.10;99.90;;;;;;5030175;28;19917;-73
2022/01/13 14:22:28;;;;;;;;;;;-0.10;99.90;;;;;;5032476;28;19917;-73
2022/01/13 14:24:54;;;;;;;;;;;-0.10;99.90;;;;;;5030288;28;19920;-73
2022/01/13 14:27:19;;;;;;;;;;;-0.10;99.90;;;;;;5031537;28;19917;-73
2022/01/13 14:29:50;;;;;;;;;;;-0.10;99.90;;;;;;5031519;28;19914;-73
2022/01/13 14:32:23;;;;;;;;;;;-0.30;99.90;;;;;;5030075;28;19932;-72
2022/01/13 14:34:53;;;;;;;;;;;-0.50;99.90;;;;;;5031695;28;20428;-73
2022/01/13 14:37:19;;;;;;;;;;;-0.50;99.90;;;;;;5031141;28;20421;-73
2022/01/13 14:40:03;;;;;;;;;;;-0.50;99.90;;;;;;5032071;28;19924;-72
2022/01/13 14:42:30;;;;;;;;;;;-0.40;99.90;;;;;;5030870;28;20396;-72
2022/01/13 14:45:14;;;;;;;;;;;-0.30;99.90;;;;;;5031742;28;19924;-72
2022/01/13 14:47:39;;;;;;;;;;;-0.40;99.90;;;;;;5032633;28;19921;-72
2022/01/13 14:50:05;;;;;;;;;;;-0.50;99.90;;;;;;5031039;28;19916;-72